Grand Chain, Illinois
Current Conditions -  °F | °C
As of 6:35 AM on Monday 24 Nov 2014 (Local Time) from KM30 Reporting Station
Overcast Overcast  
Wind Chill: 43°   Ceiling: 2100
Heat Index: 49°   Visibility: 10mi
Dew Point: 44°   Wind: 16mph
Humidity: 83%   Direction: 240°WSW
Pressure: 29.54"   Gusts: 25mph
Location:  37.24°N, 88.89°W
Report Text: KM30 241235Z AUTO 24014G22KT 10SM BKN021 BKN029 OVC036 09/07 A2954 RMK AO2 T00920065
Loading
Personal Weather Stations






























Interactive Weather Map New forecast layout! Learn more

10-Day Weather Forecast

Advertisements
Track Severe Weather on mobile